sensor_id;sensor_type;location;lat;lon;timestamp;P1;durP1;ratioP1;P2;durP2;ratioP2
57309;SDS011;43153;50.984;18.204;2023-09-08T00:00:31;21.80;;;12.80;;
57309;SDS011;43153;50.984;18.204;2023-09-08T00:02:57;23.20;;;13.00;;
57309;SDS011;43153;50.984;18.204;2023-09-08T00:05:26;22.20;;;14.10;;
57309;SDS011;43153;50.984;18.204;2023-09-08T00:07:54;23.50;;;13.70;;
57309;SDS011;43153;50.984;18.204;2023-09-08T00:10:21;23.10;;;12.50;;
57309;SDS011;43153;50.984;18.204;2023-09-08T00:12:49;21.90;;;12.10;;
57309;SDS011;43153;50.984;18.204;2023-09-08T00:15:15;23.00;;;12.70;;
57309;SDS011;43153;50.984;18.204;2023-09-08T00:17:41;27.30;;;12.20;;
57309;SDS011;43153;50.984;18.204;2023-09-08T00:20:07;20.80;;;11.10;;
57309;SDS011;43153;50.984;18.204;2023-09-08T00:22:37;18.40;;;11.20;;
57309;SDS011;43153;50.984;18.204;2023-09-08T00:25:04;19.60;;;11.30;;
57309;SDS011;43153;50.984;18.204;2023-09-08T00:27:30;19.50;;;10.20;;
57309;SDS011;43153;50.984;18.204;2023-09-08T00:29:58;19.00;;;11.60;;
57309;SDS011;43153;50.984;18.204;2023-09-08T00:32:27;21.10;;;11.70;;
57309;SDS011;43153;50.984;18.204;2023-09-08T00:34:53;18.80;;;11.30;;
57309;SDS011;43153;50.984;18.204;2023-09-08T00:37:19;19.20;;;11.20;;
57309;SDS011;43153;50.984;18.204;2023-09-08T00:39:47;17.30;;;10.80;;
57309;SDS011;43153;50.984;18.204;2023-09-08T00:42:16;15.80;;;9.30;;
57309;SDS011;43153;50.984;18.204;2023-09-08T00:44:42;16.00;;;10.10;;
57309;SDS011;43153;50.984;18.204;2023-09-08T00:47:08;19.10;;;10.10;;
57309;SDS011;43153;50.984;18.204;2023-09-08T00:49:33;23.00;;;10.20;;
57309;SDS011;43153;50.984;18.204;2023-09-08T00:52:00;19.30;;;10.60;;
57309;SDS011;43153;50.984;18.204;2023-09-08T00:54:26;20.90;;;11.00;;
57309;SDS011;43153;50.984;18.204;2023-09-08T00:56:54;16.30;;;10.40;;
57309;SDS011;43153;50.984;18.204;2023-09-08T00:59:22;19.10;;;10.90;;
57309;SDS011;43153;50.984;18.204;2023-09-08T01:01:52;20.20;;;11.60;;
57309;SDS011;43153;50.984;18.204;2023-09-08T01:04:18;22.50;;;12.10;;
57309;SDS011;43153;50.984;18.204;2023-09-08T01:06:44;20.50;;;12.70;;
57309;SDS011;43153;50.984;18.204;2023-09-08T01:09:11;19.60;;;12.50;;
57309;SDS011;43153;50.984;18.204;2023-09-08T01:11:39;20.30;;;12.10;;
57309;SDS011;43153;50.984;18.204;2023-09-08T01:14:05;21.20;;;12.40;;
57309;SDS011;43153;50.984;18.204;2023-09-08T01:16:33;23.30;;;13.50;;
57309;SDS011;43153;50.984;18.204;2023-09-08T01:19:04;22.10;;;12.80;;
57309;SDS011;43153;50.984;18.204;2023-09-08T01:27:29;23.80;;;13.20;;
57309;SDS011;43153;50.984;18.204;2023-09-08T01:30:01;24.10;;;14.30;;
57309;SDS011;43153;50.984;18.204;2023-09-08T01:32:32;23.40;;;14.60;;
57309;SDS011;43153;50.984;18.204;2023-09-08T01:34:59;25.20;;;14.60;;
57309;SDS011;43153;50.984;18.204;2023-09-08T01:37:26;21.20;;;13.70;;
57309;SDS011;43153;50.984;18.204;2023-09-08T01:39:52;23.20;;;14.30;;
57309;SDS011;43153;50.984;18.204;2023-09-08T01:42:20;27.90;;;13.70;;
57309;SDS011;43153;50.984;18.204;2023-09-08T01:44:48;21.50;;;13.40;;
57309;SDS011;43153;50.984;18.204;2023-09-08T01:47:21;22.80;;;13.90;;
57309;SDS011;43153;50.984;18.204;2023-09-08T01:52:17;30.30;;;15.20;;
57309;SDS011;43153;50.984;18.204;2023-09-08T01:54:47;22.60;;;13.80;;
57309;SDS011;43153;50.984;18.204;2023-09-08T01:57:13;22.40;;;13.70;;
57309;SDS011;43153;50.984;18.204;2023-09-08T01:59:43;27.20;;;14.80;;
57309;SDS011;43153;50.984;18.204;2023-09-08T02:02:16;29.60;;;14.50;;
57309;SDS011;43153;50.984;18.204;2023-09-08T02:04:43;25.20;;;14.60;;
57309;SDS011;43153;50.984;18.204;2023-09-08T02:07:09;25.90;;;13.70;;
57309;SDS011;43153;50.984;18.204;2023-09-08T02:09:37;21.30;;;13.40;;
57309;SDS011;43153;50.984;18.204;2023-09-08T02:12:07;22.10;;;13.90;;
57309;SDS011;43153;50.984;18.204;2023-09-08T02:14:34;23.60;;;14.00;;
57309;SDS011;43153;50.984;18.204;2023-09-08T02:17:00;20.60;;;13.30;;
57309;SDS011;43153;50.984;18.204;2023-09-08T02:19:28;21.40;;;13.10;;
57309;SDS011;43153;50.984;18.204;2023-09-08T02:21:57;22.00;;;12.90;;
57309;SDS011;43153;50.984;18.204;2023-09-08T02:24:26;27.70;;;15.00;;
57309;SDS011;43153;50.984;18.204;2023-09-08T02:26:52;26.10;;;13.90;;
57309;SDS011;43153;50.984;18.204;2023-09-08T02:29:18;26.70;;;14.00;;
57309;SDS011;43153;50.984;18.204;2023-09-08T02:31:45;22.50;;;14.10;;
57309;SDS011;43153;50.984;18.204;2023-09-08T02:34:11;20.80;;;12.80;;
57309;SDS011;43153;50.984;18.204;2023-09-08T02:36:38;22.50;;;13.40;;
57309;SDS011;43153;50.984;18.204;2023-09-08T02:39:05;19.30;;;12.20;;
57309;SDS011;43153;50.984;18.204;2023-09-08T02:41:36;22.90;;;12.90;;
57309;SDS011;43153;50.984;18.204;2023-09-08T02:44:05;22.20;;;13.40;;
57309;SDS011;43153;50.984;18.204;2023-09-08T02:46:31;24.10;;;13.20;;
57309;SDS011;43153;50.984;18.204;2023-09-08T02:48:58;18.60;;;12.30;;
57309;SDS011;43153;50.984;18.204;2023-09-08T02:51:24;26.20;;;13.60;;
57309;SDS011;43153;50.984;18.204;2023-09-08T02:53:52;21.80;;;13.00;;
57309;SDS011;43153;50.984;18.204;2023-09-08T02:56:26;22.90;;;13.80;;
57309;SDS011;43153;50.984;18.204;2023-09-08T02:58:56;20.50;;;12.80;;
57309;SDS011;43153;50.984;18.204;2023-09-08T03:01:27;21.60;;;12.50;;
57309;SDS011;43153;50.984;18.204;2023-09-08T03:03:56;21.50;;;13.20;;
57309;SDS011;43153;50.984;18.204;2023-09-08T03:06:22;23.60;;;12.70;;
57309;SDS011;43153;50.984;18.204;2023-09-08T03:08:50;18.50;;;12.40;;
57309;SDS011;43153;50.984;18.204;2023-09-08T03:11:20;22.30;;;13.40;;
57309;SDS011;43153;50.984;18.204;2023-09-08T03:13:49;22.50;;;13.10;;
57309;SDS011;43153;50.984;18.204;2023-09-08T03:16:14;21.50;;;12.90;;
57309;SDS011;43153;50.984;18.204;2023-09-08T03:18:43;21.80;;;12.80;;
57309;SDS011;43153;50.984;18.204;2023-09-08T03:21:09;21.90;;;13.30;;
57309;SDS011;43153;50.984;18.204;2023-09-08T03:23:39;24.30;;;12.70;;
57309;SDS011;43153;50.984;18.204;2023-09-08T03:26:09;20.40;;;12.00;;
57309;SDS011;43153;50.984;18.204;2023-09-08T03:28:37;20.20;;;11.60;;
57309;SDS011;43153;50.984;18.204;2023-09-08T03:31:04;18.20;;;11.30;;
57309;SDS011;43153;50.984;18.204;2023-09-08T03:33:31;17.70;;;10.80;;
57309;SDS011;43153;50.984;18.204;2023-09-08T03:36:05;24.00;;;12.90;;
57309;SDS011;43153;50.984;18.204;2023-09-08T03:38:32;19.60;;;10.50;;
57309;SDS011;43153;50.984;18.204;2023-09-08T03:40:58;18.80;;;10.90;;
57309;SDS011;43153;50.984;18.204;2023-09-08T03:43:25;20.40;;;11.10;;
57309;SDS011;43153;50.984;18.204;2023-09-08T03:45:51;18.80;;;10.40;;
57309;SDS011;43153;50.984;18.204;2023-09-08T03:48:16;20.00;;;11.00;;
57309;SDS011;43153;50.984;18.204;2023-09-08T03:50:42;22.50;;;12.20;;
57309;SDS011;43153;50.984;18.204;2023-09-08T03:53:12;20.80;;;11.20;;
57309;SDS011;43153;50.984;18.204;2023-09-08T03:55:40;18.60;;;10.50;;
57309;SDS011;43153;50.984;18.204;2023-09-08T03:58:11;19.00;;;10.40;;
57309;SDS011;43153;50.984;18.204;2023-09-08T04:00:38;18.70;;;12.00;;
57309;SDS011;43153;50.984;18.204;2023-09-08T04:03:04;17.20;;;10.70;;
57309;SDS011;43153;50.984;18.204;2023-09-08T04:05:30;20.20;;;11.40;;
57309;SDS011;43153;50.984;18.204;2023-09-08T04:07:57;23.40;;;12.40;;
57309;SDS011;43153;50.984;18.204;2023-09-08T04:10:23;21.00;;;11.00;;
57309;SDS011;43153;50.984;18.204;2023-09-08T04:12:52;20.70;;;11.20;;
57309;SDS011;43153;50.984;18.204;2023-09-08T04:15:21;16.40;;;9.90;;
57309;SDS011;43153;50.984;18.204;2023-09-08T04:17:49;22.10;;;11.10;;
57309;SDS011;43153;50.984;18.204;2023-09-08T04:20:19;22.70;;;11.30;;
57309;SDS011;43153;50.984;18.204;2023-09-08T04:22:45;22.10;;;11.10;;
57309;SDS011;43153;50.984;18.204;2023-09-08T04:25:15;26.00;;;11.90;;
57309;SDS011;43153;50.984;18.204;2023-09-08T04:27:43;22.80;;;10.70;;
57309;SDS011;43153;50.984;18.204;2023-09-08T04:30:10;24.90;;;11.30;;
57309;SDS011;43153;50.984;18.204;2023-09-08T04:32:36;21.50;;;11.90;;
57309;SDS011;43153;50.984;18.204;2023-09-08T04:35:08;22.80;;;11.60;;
57309;SDS011;43153;50.984;18.204;2023-09-08T04:37:35;21.20;;;11.00;;
57309;SDS011;43153;50.984;18.204;2023-09-08T04:40:02;23.20;;;11.10;;
57309;SDS011;43153;50.984;18.204;2023-09-08T04:42:31;25.00;;;11.50;;
57309;SDS011;43153;50.984;18.204;2023-09-08T04:44:58;22.80;;;10.50;;
57309;SDS011;43153;50.984;18.204;2023-09-08T04:47:26;23.80;;;10.30;;
57309;SDS011;43153;50.984;18.204;2023-09-08T04:49:54;19.20;;;10.90;;
57309;SDS011;43153;50.984;18.204;2023-09-08T04:52:24;20.10;;;10.70;;
57309;SDS011;43153;50.984;18.204;2023-09-08T04:54:50;23.30;;;11.20;;
57309;SDS011;43153;50.984;18.204;2023-09-08T04:57:16;20.10;;;12.50;;
57309;SDS011;43153;50.984;18.204;2023-09-08T04:59:43;24.00;;;10.70;;
57309;SDS011;43153;50.984;18.204;2023-09-08T05:02:11;20.90;;;11.20;;
57309;SDS011;43153;50.984;18.204;2023-09-08T05:04:37;21.80;;;11.10;;
57309;SDS011;43153;50.984;18.204;2023-09-08T05:07:04;17.60;;;9.50;;
57309;SDS011;43153;50.984;18.204;2023-09-08T05:09:30;21.60;;;10.20;;
57309;SDS011;43153;50.984;18.204;2023-09-08T05:11:56;19.10;;;9.20;;
57309;SDS011;43153;50.984;18.204;2023-09-08T05:14:25;18.70;;;10.50;;
57309;SDS011;43153;50.984;18.204;2023-09-08T05:16:51;19.20;;;10.80;;
57309;SDS011;43153;50.984;18.204;2023-09-08T05:19:21;23.10;;;10.70;;
57309;SDS011;43153;50.984;18.204;2023-09-08T05:21:54;18.40;;;11.20;;
57309;SDS011;43153;50.984;18.204;2023-09-08T05:24:31;21.90;;;9.70;;
57309;SDS011;43153;50.984;18.204;2023-09-08T05:26:59;19.90;;;10.00;;
57309;SDS011;43153;50.984;18.204;2023-09-08T05:29:26;18.60;;;9.20;;
57309;SDS011;43153;50.984;18.204;2023-09-08T05:31:52;21.40;;;9.60;;
57309;SDS011;43153;50.984;18.204;2023-09-08T05:34:21;17.10;;;9.60;;
57309;SDS011;43153;50.984;18.204;2023-09-08T05:36:48;18.40;;;10.50;;
57309;SDS011;43153;50.984;18.204;2023-09-08T05:39:16;19.90;;;9.90;;
57309;SDS011;43153;50.984;18.204;2023-09-08T05:41:46;17.50;;;9.50;;
57309;SDS011;43153;50.984;18.204;2023-09-08T05:44:14;16.10;;;8.60;;
57309;SDS011;43153;50.984;18.204;2023-09-08T05:46:40;15.30;;;8.10;;
57309;SDS011;43153;50.984;18.204;2023-09-08T05:49:09;17.40;;;9.60;;
57309;SDS011;43153;50.984;18.204;2023-09-08T05:51:35;19.80;;;9.80;;
57309;SDS011;43153;50.984;18.204;2023-09-08T05:54:00;18.60;;;8.70;;
57309;SDS011;43153;50.984;18.204;2023-09-08T05:56:31;22.90;;;9.10;;
57309;SDS011;43153;50.984;18.204;2023-09-08T05:58:59;13.80;;;7.50;;
57309;SDS011;43153;50.984;18.204;2023-09-08T06:01:28;18.10;;;8.20;;
57309;SDS011;43153;50.984;18.204;2023-09-08T06:03:55;20.30;;;8.10;;
57309;SDS011;43153;50.984;18.204;2023-09-08T06:06:21;17.70;;;8.00;;
57309;SDS011;43153;50.984;18.204;2023-09-08T06:08:53;19.30;;;8.20;;
57309;SDS011;43153;50.984;18.204;2023-09-08T06:11:24;17.20;;;9.60;;
57309;SDS011;43153;50.984;18.204;2023-09-08T06:13:50;16.10;;;7.60;;
57309;SDS011;43153;50.984;18.204;2023-09-08T06:16:18;15.80;;;7.80;;
57309;SDS011;43153;50.984;18.204;2023-09-08T06:18:45;14.60;;;7.10;;
57309;SDS011;43153;50.984;18.204;2023-09-08T06:21:11;14.10;;;7.70;;
57309;SDS011;43153;50.984;18.204;2023-09-08T06:23:37;13.20;;;7.60;;
57309;SDS011;43153;50.984;18.204;2023-09-08T06:26:03;13.60;;;7.70;;
57309;SDS011;43153;50.984;18.204;2023-09-08T06:28:31;12.40;;;6.60;;
57309;SDS011;43153;50.984;18.204;2023-09-08T06:30:58;13.10;;;6.40;;
57309;SDS011;43153;50.984;18.204;2023-09-08T06:33:26;15.50;;;7.40;;
57309;SDS011;43153;50.984;18.204;2023-09-08T06:35:51;11.70;;;6.60;;
57309;SDS011;43153;50.984;18.204;2023-09-08T06:38:19;13.50;;;6.60;;
57309;SDS011;43153;50.984;18.204;2023-09-08T06:40:44;14.50;;;7.20;;
57309;SDS011;43153;50.984;18.204;2023-09-08T06:43:11;14.30;;;7.40;;
57309;SDS011;43153;50.984;18.204;2023-09-08T06:45:37;15.50;;;7.10;;
57309;SDS011;43153;50.984;18.204;2023-09-08T06:48:08;13.10;;;7.80;;
57309;SDS011;43153;50.984;18.204;2023-09-08T06:50:37;13.00;;;7.80;;
57309;SDS011;43153;50.984;18.204;2023-09-08T06:53:03;16.20;;;6.90;;
57309;SDS011;43153;50.984;18.204;2023-09-08T06:55:33;12.80;;;6.60;;
57309;SDS011;43153;50.984;18.204;2023-09-08T06:58:00;13.50;;;6.80;;
57309;SDS011;43153;50.984;18.204;2023-09-08T07:00:26;12.60;;;6.60;;
57309;SDS011;43153;50.984;18.204;2023-09-08T07:02:53;11.50;;;6.50;;
57309;SDS011;43153;50.984;18.204;2023-09-08T07:05:19;16.80;;;7.30;;
57309;SDS011;43153;50.984;18.204;2023-09-08T07:07:45;13.20;;;7.00;;
57309;SDS011;43153;50.984;18.204;2023-09-08T07:10:17;14.60;;;6.60;;
57309;SDS011;43153;50.984;18.204;2023-09-08T07:12:44;13.60;;;6.40;;
57309;SDS011;43153;50.984;18.204;2023-09-08T07:15:13;17.60;;;7.60;;
57309;SDS011;43153;50.984;18.204;2023-09-08T07:17:39;12.90;;;7.10;;
57309;SDS011;43153;50.984;18.204;2023-09-08T07:20:06;15.00;;;6.80;;
57309;SDS011;43153;50.984;18.204;2023-09-08T07:22:32;11.80;;;6.30;;
57309;SDS011;43153;50.984;18.204;2023-09-08T07:24:59;14.70;;;6.60;;
57309;SDS011;43153;50.984;18.204;2023-09-08T07:27:28;12.30;;;6.20;;
57309;SDS011;43153;50.984;18.204;2023-09-08T07:30:01;14.00;;;6.40;;
57309;SDS011;43153;50.984;18.204;2023-09-08T07:32:28;14.50;;;6.30;;
57309;SDS011;43153;50.984;18.204;2023-09-08T07:34:54;14.60;;;6.40;;
57309;SDS011;43153;50.984;18.204;2023-09-08T07:37:23;13.70;;;6.60;;
57309;SDS011;43153;50.984;18.204;2023-09-08T07:39:50;12.00;;;6.50;;
57309;SDS011;43153;50.984;18.204;2023-09-08T07:42:16;13.70;;;6.80;;
57309;SDS011;43153;50.984;18.204;2023-09-08T07:44:45;11.30;;;6.10;;
57309;SDS011;43153;50.984;18.204;2023-09-08T07:47:13;13.20;;;6.40;;
57309;SDS011;43153;50.984;18.204;2023-09-08T07:49:45;12.50;;;5.90;;
57309;SDS011;43153;50.984;18.204;2023-09-08T07:52:15;14.90;;;6.10;;
57309;SDS011;43153;50.984;18.204;2023-09-08T07:54:41;16.50;;;6.60;;
57309;SDS011;43153;50.984;18.204;2023-09-08T07:57:08;11.10;;;6.20;;
57309;SDS011;43153;50.984;18.204;2023-09-08T07:59:37;11.60;;;5.60;;
57309;SDS011;43153;50.984;18.204;2023-09-08T08:02:04;9.40;;;5.60;;
57309;SDS011;43153;50.984;18.204;2023-09-08T08:04:31;10.80;;;6.20;;
57309;SDS011;43153;50.984;18.204;2023-09-08T08:06:59;9.40;;;4.80;;
57309;SDS011;43153;50.984;18.204;2023-09-08T08:09:24;10.60;;;4.90;;
57309;SDS011;43153;50.984;18.204;2023-09-08T08:11:51;9.80;;;4.90;;
57309;SDS011;43153;50.984;18.204;2023-09-08T08:14:19;11.60;;;5.60;;
57309;SDS011;43153;50.984;18.204;2023-09-08T08:16:45;12.00;;;6.10;;
57309;SDS011;43153;50.984;18.204;2023-09-08T08:19:14;13.40;;;6.00;;
57309;SDS011;43153;50.984;18.204;2023-09-08T08:21:41;11.20;;;5.90;;
57309;SDS011;43153;50.984;18.204;2023-09-08T08:24:07;12.90;;;5.70;;
57309;SDS011;43153;50.984;18.204;2023-09-08T08:26:34;12.50;;;5.60;;
57309;SDS011;43153;50.984;18.204;2023-09-08T08:29:00;11.20;;;5.60;;
57309;SDS011;43153;50.984;18.204;2023-09-08T08:31:28;11.10;;;5.60;;
57309;SDS011;43153;50.984;18.204;2023-09-08T08:34:01;11.00;;;5.50;;
57309;SDS011;43153;50.984;18.204;2023-09-08T08:36:28;10.60;;;5.60;;
57309;SDS011;43153;50.984;18.204;2023-09-08T08:38:56;10.80;;;5.70;;
57309;SDS011;43153;50.984;18.204;2023-09-08T08:41:22;13.70;;;6.00;;
57309;SDS011;43153;50.984;18.204;2023-09-08T08:43:51;9.60;;;5.30;;
57309;SDS011;43153;50.984;18.204;2023-09-08T08:46:20;12.00;;;5.70;;
57309;SDS011;43153;50.984;18.204;2023-09-08T08:48:48;9.40;;;5.10;;
57309;SDS011;43153;50.984;18.204;2023-09-08T08:51:17;12.20;;;4.70;;
57309;SDS011;43153;50.984;18.204;2023-09-08T08:53:49;14.20;;;5.20;;
57309;SDS011;43153;50.984;18.204;2023-09-08T08:56:16;14.10;;;5.40;;
57309;SDS011;43153;50.984;18.204;2023-09-08T08:58:44;12.70;;;5.40;;
57309;SDS011;43153;50.984;18.204;2023-09-08T09:01:11;10.90;;;5.20;;
57309;SDS011;43153;50.984;18.204;2023-09-08T09:03:38;10.60;;;4.90;;
57309;SDS011;43153;50.984;18.204;2023-09-08T09:06:09;14.10;;;5.50;;
57309;SDS011;43153;50.984;18.204;2023-09-08T09:08:39;10.20;;;5.20;;
57309;SDS011;43153;50.984;18.204;2023-09-08T09:11:06;11.60;;;4.90;;
57309;SDS011;43153;50.984;18.204;2023-09-08T09:13:33;19.00;;;5.60;;
57309;SDS011;43153;50.984;18.204;2023-09-08T09:16:03;12.50;;;4.70;;
57309;SDS011;43153;50.984;18.204;2023-09-08T09:18:53;14.10;;;4.80;;
57309;SDS011;43153;50.984;18.204;2023-09-08T09:22:25;10.20;;;4.90;;
57309;SDS011;43153;50.984;18.204;2023-09-08T09:25:35;9.50;;;4.50;;
57309;SDS011;43153;50.984;18.204;2023-09-08T09:28:09;12.40;;;5.10;;
57309;SDS011;43153;50.984;18.204;2023-09-08T09:31:05;11.50;;;4.80;;
57309;SDS011;43153;50.984;18.204;2023-09-08T09:33:36;14.70;;;4.60;;
57309;SDS011;43153;50.984;18.204;2023-09-08T09:36:03;9.90;;;5.40;;
57309;SDS011;43153;50.984;18.204;2023-09-08T09:38:32;9.50;;;4.70;;
57309;SDS011;43153;50.984;18.204;2023-09-08T09:41:01;10.60;;;4.30;;
57309;SDS011;43153;50.984;18.204;2023-09-08T10:25:19;8.20;;;4.40;;
57309;SDS011;43153;50.984;18.204;2023-09-08T10:27:53;10.70;;;3.90;;
57309;SDS011;43153;50.984;18.204;2023-09-08T10:30:19;10.00;;;3.60;;
57309;SDS011;43153;50.984;18.204;2023-09-08T10:32:47;9.00;;;4.10;;
57309;SDS011;43153;50.984;18.204;2023-09-08T10:35:16;11.20;;;5.00;;
57309;SDS011;43153;50.984;18.204;2023-09-08T10:37:44;7.90;;;4.10;;
57309;SDS011;43153;50.984;18.204;2023-09-08T10:42:47;9.20;;;3.90;;
57309;SDS011;43153;50.984;18.204;2023-09-08T10:45:15;7.90;;;4.20;;
57309;SDS011;43153;50.984;18.204;2023-09-08T10:50:19;9.70;;;3.90;;
57309;SDS011;43153;50.984;18.204;2023-09-08T10:55:36;10.10;;;4.30;;
57309;SDS011;43153;50.984;18.204;2023-09-08T10:58:08;8.70;;;3.60;;
57309;SDS011;43153;50.984;18.204;2023-09-08T11:00:43;10.50;;;3.60;;
57309;SDS011;43153;50.984;18.204;2023-09-08T11:03:14;7.90;;;3.80;;
57309;SDS011;43153;50.984;18.204;2023-09-08T11:08:18;9.50;;;4.20;;
57309;SDS011;43153;50.984;18.204;2023-09-08T11:10:48;8.90;;;3.70;;
57309;SDS011;43153;50.984;18.204;2023-09-08T11:13:14;10.70;;;4.00;;
57309;SDS011;43153;50.984;18.204;2023-09-08T11:15:41;8.20;;;3.90;;
57309;SDS011;43153;50.984;18.204;2023-09-08T11:18:09;13.20;;;4.40;;
57309;SDS011;43153;50.984;18.204;2023-09-08T11:20:35;9.10;;;3.90;;
57309;SDS011;43153;50.984;18.204;2023-09-08T11:23:03;9.00;;;3.70;;
57309;SDS011;43153;50.984;18.204;2023-09-08T11:25:34;11.30;;;3.60;;
57309;SDS011;43153;50.984;18.204;2023-09-08T11:28:02;9.70;;;3.60;;
57309;SDS011;43153;50.984;18.204;2023-09-08T11:30:29;8.10;;;3.60;;
57309;SDS011;43153;50.984;18.204;2023-09-08T11:32:55;12.20;;;3.60;;
57309;SDS011;43153;50.984;18.204;2023-09-08T11:35:25;7.70;;;3.50;;
57309;SDS011;43153;50.984;18.204;2023-09-08T11:40:24;8.20;;;4.20;;
57309;SDS011;43153;50.984;18.204;2023-09-08T11:42:50;9.40;;;3.40;;
57309;SDS011;43153;50.984;18.204;2023-09-08T11:45:26;7.70;;;3.60;;
57309;SDS011;43153;50.984;18.204;2023-09-08T11:47:58;9.10;;;3.70;;
57309;SDS011;43153;50.984;18.204;2023-09-08T11:50:26;9.90;;;3.80;;
57309;SDS011;43153;50.984;18.204;2023-09-08T11:52:56;8.30;;;3.70;;
57309;SDS011;43153;50.984;18.204;2023-09-08T11:55:28;7.80;;;3.80;;
57309;SDS011;43153;50.984;18.204;2023-09-08T11:57:55;11.80;;;4.40;;
57309;SDS011;43153;50.984;18.204;2023-09-08T12:00:27;10.60;;;4.00;;
57309;SDS011;43153;50.984;18.204;2023-09-08T12:02:54;13.50;;;3.70;;
57309;SDS011;43153;50.984;18.204;2023-09-08T12:05:29;8.80;;;3.80;;
57309;SDS011;43153;50.984;18.204;2023-09-08T12:07:56;7.10;;;3.70;;
57309;SDS011;43153;50.984;18.204;2023-09-08T12:10:27;8.00;;;3.80;;
57309;SDS011;43153;50.984;18.204;2023-09-08T12:12:56;8.30;;;4.10;;
57309;SDS011;43153;50.984;18.204;2023-09-08T12:15:36;10.00;;;3.70;;
57309;SDS011;43153;50.984;18.204;2023-09-08T12:18:10;10.10;;;4.30;;
57309;SDS011;43153;50.984;18.204;2023-09-08T12:20:43;7.30;;;3.30;;
57309;SDS011;43153;50.984;18.204;2023-09-08T12:23:19;9.70;;;4.30;;
57309;SDS011;43153;50.984;18.204;2023-09-08T12:25:49;7.20;;;3.50;;
57309;SDS011;43153;50.984;18.204;2023-09-08T12:28:21;7.10;;;3.30;;
57309;SDS011;43153;50.984;18.204;2023-09-08T12:30:49;6.70;;;3.60;;
57309;SDS011;43153;50.984;18.204;2023-09-08T12:33:18;7.30;;;3.40;;
57309;SDS011;43153;50.984;18.204;2023-09-08T12:35:45;9.20;;;3.50;;
57309;SDS011;43153;50.984;18.204;2023-09-08T12:38:14;14.30;;;4.40;;
57309;SDS011;43153;50.984;18.204;2023-09-08T12:40:40;10.00;;;3.40;;
57309;SDS011;43153;50.984;18.204;2023-09-08T12:43:14;7.60;;;3.40;;
57309;SDS011;43153;50.984;18.204;2023-09-08T12:46:04;8.70;;;3.90;;
57309;SDS011;43153;50.984;18.204;2023-09-08T12:48:31;8.90;;;3.90;;
57309;SDS011;43153;50.984;18.204;2023-09-08T12:51:01;7.40;;;3.60;;
57309;SDS011;43153;50.984;18.204;2023-09-08T12:53:32;8.30;;;3.90;;
57309;SDS011;43153;50.984;18.204;2023-09-08T12:56:04;8.10;;;3.80;;
57309;SDS011;43153;50.984;18.204;2023-09-08T12:58:36;7.70;;;3.50;;
57309;SDS011;43153;50.984;18.204;2023-09-08T13:01:04;6.50;;;3.20;;
57309;SDS011;43153;50.984;18.204;2023-09-08T13:03:33;12.00;;;3.70;;
57309;SDS011;43153;50.984;18.204;2023-09-08T13:06:00;7.50;;;3.30;;
57309;SDS011;43153;50.984;18.204;2023-09-08T13:08:29;10.80;;;3.80;;
57309;SDS011;43153;50.984;18.204;2023-09-08T13:11:01;11.60;;;3.50;;
57309;SDS011;43153;50.984;18.204;2023-09-08T13:13:29;7.60;;;3.60;;
57309;SDS011;43153;50.984;18.204;2023-09-08T13:15:58;8.00;;;3.30;;
57309;SDS011;43153;50.984;18.204;2023-09-08T13:18:27;7.80;;;3.70;;
57309;SDS011;43153;50.984;18.204;2023-09-08T13:20:58;8.80;;;3.50;;
57309;SDS011;43153;50.984;18.204;2023-09-08T13:23:27;9.10;;;3.40;;
57309;SDS011;43153;50.984;18.204;2023-09-08T16:54:20;11.70;;;4.50;;
57309;SDS011;43153;50.984;18.204;2023-09-08T16:56:47;12.90;;;4.50;;
57309;SDS011;43153;50.984;18.204;2023-09-08T16:59:14;9.00;;;4.00;;
57309;SDS011;43153;50.984;18.204;2023-09-08T17:01:40;13.00;;;4.40;;
57309;SDS011;43153;50.984;18.204;2023-09-08T17:04:08;14.50;;;4.70;;
57309;SDS011;43153;50.984;18.204;2023-09-08T17:06:34;10.10;;;4.80;;
57309;SDS011;43153;50.984;18.204;2023-09-08T17:09:01;13.60;;;4.40;;
57309;SDS011;43153;50.984;18.204;2023-09-08T17:11:30;11.40;;;4.50;;
57309;SDS011;43153;50.984;18.204;2023-09-08T17:14:03;8.80;;;4.10;;
57309;SDS011;43153;50.984;18.204;2023-09-08T17:16:30;10.60;;;3.80;;
57309;SDS011;43153;50.984;18.204;2023-09-08T17:18:58;12.80;;;5.00;;
57309;SDS011;43153;50.984;18.204;2023-09-08T17:21:33;10.80;;;4.70;;
57309;SDS011;43153;50.984;18.204;2023-09-08T17:23:58;9.30;;;4.40;;
57309;SDS011;43153;50.984;18.204;2023-09-08T17:26:27;10.40;;;4.70;;
57309;SDS011;43153;50.984;18.204;2023-09-08T17:28:54;9.90;;;4.60;;
57309;SDS011;43153;50.984;18.204;2023-09-08T17:31:19;10.60;;;4.60;;
57309;SDS011;43153;50.984;18.204;2023-09-08T17:33:45;14.20;;;5.00;;
57309;SDS011;43153;50.984;18.204;2023-09-08T17:36:12;13.40;;;5.30;;
57309;SDS011;43153;50.984;18.204;2023-09-08T17:38:39;15.80;;;5.00;;
57309;SDS011;43153;50.984;18.204;2023-09-08T17:41:07;10.10;;;4.40;;
57309;SDS011;43153;50.984;18.204;2023-09-08T17:43:33;12.10;;;4.20;;
57309;SDS011;43153;50.984;18.204;2023-09-08T17:46:01;10.70;;;4.40;;
57309;SDS011;43153;50.984;18.204;2023-09-08T17:48:28;11.10;;;4.20;;
57309;SDS011;43153;50.984;18.204;2023-09-08T17:50:55;16.20;;;5.20;;
57309;SDS011;43153;50.984;18.204;2023-09-08T17:53:21;13.00;;;5.10;;
57309;SDS011;43153;50.984;18.204;2023-09-08T17:55:48;12.60;;;5.30;;
57309;SDS011;43153;50.984;18.204;2023-09-08T17:58:14;13.80;;;6.30;;
57309;SDS011;43153;50.984;18.204;2023-09-08T18:00:40;15.20;;;6.80;;
57309;SDS011;43153;50.984;18.204;2023-09-08T18:03:11;15.60;;;6.00;;
57309;SDS011;43153;50.984;18.204;2023-09-08T18:05:37;12.10;;;5.70;;
57309;SDS011;43153;50.984;18.204;2023-09-08T18:08:03;12.30;;;6.10;;
57309;SDS011;43153;50.984;18.204;2023-09-08T18:10:29;20.40;;;5.90;;
57309;SDS011;43153;50.984;18.204;2023-09-08T18:12:54;11.90;;;6.10;;
57309;SDS011;43153;50.984;18.204;2023-09-08T18:15:20;16.60;;;8.10;;
57309;SDS011;43153;50.984;18.204;2023-09-08T18:17:47;23.00;;;9.50;;
57309;SDS011;43153;50.984;18.204;2023-09-08T18:20:13;22.30;;;10.50;;
57309;SDS011;43153;50.984;18.204;2023-09-08T18:22:40;16.60;;;9.40;;
57309;SDS011;43153;50.984;18.204;2023-09-08T18:25:06;22.20;;;9.40;;
57309;SDS011;43153;50.984;18.204;2023-09-08T18:27:32;22.70;;;10.50;;
57309;SDS011;43153;50.984;18.204;2023-09-08T18:29:59;24.70;;;12.20;;
57309;SDS011;43153;50.984;18.204;2023-09-08T18:32:25;20.90;;;11.00;;
57309;SDS011;43153;50.984;18.204;2023-09-08T18:34:51;19.40;;;8.70;;
57309;SDS011;43153;50.984;18.204;2023-09-08T18:37:17;19.20;;;9.30;;
57309;SDS011;43153;50.984;18.204;2023-09-08T18:39:43;15.70;;;7.90;;
57309;SDS011;43153;50.984;18.204;2023-09-08T18:42:09;19.00;;;9.30;;
57309;SDS011;43153;50.984;18.204;2023-09-08T18:44:35;16.60;;;7.60;;
57309;SDS011;43153;50.984;18.204;2023-09-08T18:47:08;20.20;;;7.20;;
57309;SDS011;43153;50.984;18.204;2023-09-08T18:49:34;15.10;;;7.20;;
57309;SDS011;43153;50.984;18.204;2023-09-08T18:52:02;13.00;;;7.80;;
57309;SDS011;43153;50.984;18.204;2023-09-08T18:54:30;16.80;;;7.50;;
57309;SDS011;43153;50.984;18.204;2023-09-08T18:56:57;14.90;;;6.70;;